PREVISON - TAF: TAF - Paris-Aeroport Charles De Gaulle, France du: 20180221050000h UTC
TypeJUTCVentVisi. H.CouvertureMétéo
PREVISION 210500 220500 20° 19 km/h CAVOK
PROB prob. 40%
PROVISOIRE 210600 210600 = 3500 m BR
PROB prob. 30%
PROVISOIRE 210600 210600 BKN à 152 m

PREVISION brut - TAF LFPG 210500Z 2106/2212 02010KT CAVOK PROB40 TEMPO 2106/2108 3500 BR PROB30 TEMPO 2206/2208 BKN005 TX05/2115Z TNM03/2206Z


METAR brut: LFPG 210700Z 01011KT 360V140 2500 BR NSC M01/M02 Q1022 NOSIG
Vent: Paris-Aeroport Charles De Gaulle, France Météo: Paris-Aeroport Charles De Gaulle, France
METAR décodé: Paris-Aeroport Charles De Gaulle, France.
Up : 14 mn à 07:00 UTC.
Vent : 20 km/h >> Nord (010°), var Nord (360°)et Ssud-E (140°).
Visibilité Hor. : 2500 m.
Température : -1 °C. P. rosée. : -2 °C.
_C° ressentie : -7 °C.
Humidité : 92.9%.
Pression : 1022 hPa.
Météo : brume - pas de changement significatif dans les deux prochaines heures..